createdAt,value
2024-04-07T00:02:47.585Z,23.0600
2024-04-07T00:12:59.145Z,23.0510
2024-04-07T00:23:10.590Z,23.0400
2024-04-07T00:33:21.816Z,23.0315
2024-04-07T00:43:33.209Z,23.0202
2024-04-07T00:53:44.110Z,23.0117
2024-04-07T01:03:54.837Z,23.0100
2024-04-07T01:14:05.992Z,23.0100
2024-04-07T01:24:16.841Z,23.0069
2024-04-07T01:34:27.706Z,22.9983
2024-04-07T01:44:39.259Z,22.9900
2024-04-07T01:54:50.770Z,22.9854
2024-04-07T02:05:01.429Z,22.9794
2024-04-07T02:15:12.814Z,22.9702
2024-04-07T02:25:23.924Z,22.9612
2024-04-07T02:35:34.843Z,22.9598
2024-04-07T02:45:45.924Z,22.9517
2024-04-07T02:55:57.399Z,22.9525
2024-04-07T03:06:08.443Z,22.9488
2024-04-07T03:16:19.901Z,22.9360
2024-04-07T03:26:30.914Z,22.9227
2024-04-07T03:36:42.444Z,22.9183
2024-04-07T03:46:53.122Z,22.9100
2024-04-07T03:57:04.211Z,22.9006
2024-04-07T04:07:15.244Z,22.8956
2024-04-07T04:17:26.587Z,22.8908
2024-04-07T04:27:37.449Z,22.8833
2024-04-07T04:37:48.137Z,22.8794
2024-04-07T04:47:59.241Z,22.8700
2024-04-07T04:58:10.268Z,22.8667
2024-04-07T05:08:21.043Z,22.8600
2024-04-07T05:18:32.317Z,22.8527
2024-04-07T05:28:43.184Z,22.8500
2024-04-07T05:38:54.996Z,22.8496
2024-04-07T05:49:06.476Z,22.8400
2024-04-07T05:59:17.516Z,22.8358
2024-04-07T06:09:28.916Z,22.8302
2024-04-07T06:19:39.821Z,22.8292
2024-04-07T06:29:51.545Z,22.8265
2024-04-07T06:40:02.583Z,22.8181
2024-04-07T06:50:13.953Z,22.8071
2024-04-07T07:00:24.940Z,22.8000
2024-04-07T07:10:36.459Z,22.8000
2024-04-07T07:20:48.196Z,22.8000
2024-04-07T07:30:59.928Z,22.7931
2024-04-07T07:41:11.596Z,22.7900
2024-04-07T07:51:23.143Z,22.7831
2024-04-07T08:01:36.401Z,22.7775
2024-04-07T08:11:49.303Z,22.7700
2024-04-07T08:22:00.406Z,22.7656
2024-04-07T08:32:11.402Z,22.7671
2024-04-07T08:42:23.015Z,22.7644
2024-04-07T08:52:34.211Z,22.7600
2024-04-07T09:02:45.351Z,22.7517
2024-04-07T09:12:56.972Z,22.7500
2024-04-07T09:23:07.725Z,22.7500
2024-04-07T09:33:19.296Z,22.7488
2024-04-07T09:43:30.950Z,22.7388
2024-04-07T09:53:42.591Z,22.7217
2024-04-07T10:03:53.607Z,22.7050
2024-04-07T10:14:04.519Z,22.7027
2024-04-07T10:24:15.650Z,22.7000
2024-04-07T10:34:26.490Z,22.6956
2024-04-07T10:44:37.963Z,22.6900
2024-04-07T10:54:49.493Z,22.6825
2024-04-07T11:05:00.390Z,22.6746
2024-04-07T11:15:11.982Z,22.6660
2024-04-07T11:25:22.816Z,22.6592
2024-04-07T11:35:33.680Z,22.6500
2024-04-07T11:45:44.192Z,22.6500
2024-04-07T11:55:55.738Z,22.6496
2024-04-07T12:06:07.289Z,22.6377
2024-04-07T12:16:17.834Z,22.6246
2024-04-07T12:26:29.388Z,22.6038
2024-04-07T12:36:41.282Z,22.6000
2024-04-07T12:46:54.045Z,22.5963
2024-04-07T12:57:04.938Z,22.5865
2024-04-07T13:07:16.704Z,22.5800
2024-04-07T13:17:28.384Z,22.5715
2024-04-07T13:27:40.027Z,22.5708
2024-04-07T13:37:51.640Z,22.5673
2024-04-07T13:48:03.174Z,22.5600
2024-04-07T13:58:14.914Z,22.5517
2024-04-07T14:08:26.556Z,22.5500
2024-04-07T14:18:37.312Z,22.5500
2024-04-07T14:28:48.591Z,22.5442
2024-04-07T14:38:59.841Z,22.5333
2024-04-07T14:49:11.402Z,22.5294
2024-04-07T14:59:22.350Z,22.5296
2024-04-07T15:09:33.165Z,22.5202
2024-04-07T15:19:44.843Z,22.5117
2024-04-07T15:29:55.550Z,22.5100
2024-04-07T15:40:08.915Z,22.5081
2024-04-07T15:50:20.060Z,22.5000
2024-04-07T16:00:31.598Z,22.5000
2024-04-07T16:10:42.288Z,22.4937
2024-04-07T16:20:55.485Z,22.4900
2024-04-07T16:31:06.963Z,22.4804
2024-04-07T16:41:18.051Z,22.4792
2024-04-07T16:51:28.912Z,22.4779
2024-04-07T17:01:40.483Z,22.4700
2024-04-07T17:11:52.213Z,22.4648
2024-04-07T17:22:03.196Z,22.4600
2024-04-07T17:32:14.032Z,22.4600
2024-04-07T17:42:24.923Z,22.4558
2024-04-07T17:52:36.467Z,22.4492
2024-04-07T18:02:48.248Z,22.4400
2024-04-07T18:12:59.626Z,22.4325
2024-04-07T18:23:10.486Z,22.4294
2024-04-07T18:33:21.629Z,22.4200
2024-04-07T18:43:32.811Z,22.4188
2024-04-07T18:53:44.026Z,22.4200
2024-04-07T19:03:54.948Z,22.4075
2024-04-07T19:14:06.597Z,22.3940
2024-04-07T19:24:17.894Z,22.3900
2024-04-07T19:34:29.060Z,22.3802
2024-04-07T19:44:40.202Z,22.3775
2024-04-07T19:54:51.596Z,22.3700
2024-04-07T20:05:02.692Z,22.3700
2024-04-07T20:15:13.606Z,22.3683
2024-04-07T20:25:25.074Z,22.3700
2024-04-07T20:35:36.209Z,22.3610
2024-04-07T20:45:46.944Z,22.3598
2024-04-07T20:55:57.845Z,22.3500
2024-04-07T21:06:08.798Z,22.3444
2024-04-07T21:16:19.526Z,22.3360
2024-04-07T21:26:30.644Z,22.3300
2024-04-07T21:36:41.681Z,22.3233
2024-04-07T21:46:52.679Z,22.3200
2024-04-07T21:57:03.664Z,22.3200
2024-04-07T22:07:14.469Z,22.3185
2024-04-07T22:17:25.409Z,22.3102
2024-04-07T22:27:36.332Z,22.3083
2024-04-07T22:37:47.463Z,22.3083
2024-04-07T22:47:57.937Z,22.3035
2024-04-07T22:58:08.963Z,22.3000
2024-04-07T23:08:20.172Z,22.2923
2024-04-07T23:18:31.489Z,22.2900
2024-04-07T23:28:42.243Z,22.2842
2024-04-07T23:38:53.005Z,22.2800
2024-04-07T23:49:04.093Z,22.2756
2024-04-07T23:59:15.011Z,22.2700
